Granger, TX (76530)

12:08 AM CDT on September 05, 2015 (GMT -0500)
KTXGRANG4 | | Change Station
CLOSE
Current Station
Personal Weather Station
Location: Granger, TX
Elevation: 594 ft
Nearby Weather Stations

Elev 594 ft 30.74 °N, 97.43 °W | Updated 3 minutes ago

Partly Cloudy
Partly Cloudy
81.2 °F
Feels Like 87 °F
N
9.0
Wind Variable Wind from SE
Gusts 10.0 mph

Today
High -- | Low -- °F
--% Chance of Precip.
Yesterday
High -- | Low -- °F
Precip. -- in
7:08 AM 7:48 PM
Waning Gibbous, 52% visible
Pressure 29.96 in
Visibility 10.0 miles
Clouds Clear
Heat Index 87 °F
Dew Point 74 °F
Humidity 79%
Rainfall 0.00 in
Snow Depth Not available.
UV 0 out of 12
Pollen 7.50 out of 12
Air Quality Not available.
Flu Activity Not available.
METAR KGTU 050455Z 18006KT 10SM CLR 28/21 A2996 RMK AO1
Pressure 29.96 in
Visibility 10.0 miles
Clouds Clear
Heat Index 87 °F
Dew Point 74 °F
Humidity 79%
Rainfall 0.00 in
Snow Depth Not available.
UV 0 out of 12
Pollen 7.50 out of 12
Air Quality Not available.
Flu Activity Not available.
METAR KGTU 050455Z 18006KT 10SM CLR 28/21 A2996 RMK AO1

10-Day Weather Forecast

×

Almanac

Astronomy

Sep. 05, 2015 Rise Set
Actual Time
Civil Twilight
Nautical Twilight
Astronomical Twilight
Moon
Length of Visible Light
Length of Day
Tomorrow will be .
, % of the Moon is Illuminated

Today's Extremes

State Highs State Lows

Community

WunderPhotos

Upload Photos

1,852,426 photos uploaded!

WunderBlogs® & News

Nearby

Air Quality

  Air Quality AQ Index Pollutant
Not available.

Snow Depth

Station Depth Elevation

Earthquake Activity

City Distance Mag. Time & Date
Minimum magnitude displayed is 2.5.

Coastal Water Temperatures

Place Temperature

Stations

Nearby Weather Stations

Station Location Temp. Windchill Dew Point Humidity Wind Precip. Elev Updated Type